Time;durP1;ratioP1;P1;durP2;ratioP2;P2;SDS_P1;SDS_P2;PMS_P1;PMS_P2;Temp;Humidity;BMP_temperature;BMP_pressure;BME280_temperature;BME280_humidity;BME280_pressure;Samples;Min_cycle;Max_cycle;Signal;HPM_P1;HPM_P2
2023/06/13 00:00:37;;;;;;;2.50;1.80;;;16.50;48.60;;;;;;5232015;28;20663;-45
2023/06/13 00:03:13;;;;;;;3.13;1.70;;;16.50;48.70;;;;;;5213617;28;20190;-44
2023/06/13 00:05:46;;;;;;;6.53;2.50;;;16.40;48.80;;;;;;5227204;28;20555;-45
2023/06/13 00:08:21;;;;;;;2.50;2.40;;;16.40;48.90;;;;;;5225190;28;20529;-45
2023/06/13 00:10:51;;;;;;;5.07;2.43;;;16.40;49.00;;;;;;5210853;28;20431;-45
2023/06/13 00:13:24;;;;;;;3.13;2.10;;;16.30;49.20;;;;;;5228263;28;20921;-45
2023/06/13 00:15:58;;;;;;;2.30;2.20;;;16.30;49.00;;;;;;5213091;28;20195;-45
2023/06/13 00:18:31;;;;;;;2.07;1.97;;;16.30;49.10;;;;;;5227287;28;20563;-45
2023/06/13 00:21:03;;;;;;;2.80;2.10;;;16.20;49.20;;;;;;5205761;28;20437;-46
2023/06/13 00:23:34;;;;;;;2.40;2.30;;;16.20;49.30;;;;;;5209780;28;20528;-45
2023/06/13 00:26:04;;;;;;;2.00;1.90;;;16.20;49.30;;;;;;5224973;28;20535;-47
2023/06/13 00:28:35;;;;;;;5.53;2.70;;;16.10;49.30;;;;;;5228845;28;20188;-45
2023/06/13 00:31:06;;;;;;;2.40;2.30;;;16.00;49.50;;;;;;5216894;28;20182;-46
2023/06/13 00:33:37;;;;;;;2.30;2.20;;;16.00;49.60;;;;;;5231458;28;20178;-46
2023/06/13 00:36:08;;;;;;;4.53;2.23;;;16.00;49.70;;;;;;5213836;28;20202;-45
2023/06/13 00:38:39;;;;;;;3.73;2.10;;;16.00;49.90;;;;;;5229023;28;20955;-46
2023/06/13 00:41:10;;;;;;;2.40;2.30;;;15.90;49.90;;;;;;5210484;28;20171;-45
2023/06/13 00:43:42;;;;;;;2.33;2.10;;;15.90;50.40;;;;;;5223953;28;20494;-46
2023/06/13 00:46:18;;;;;;;5.37;2.40;;;15.90;50.00;;;;;;5230472;28;20552;-46
2023/06/13 00:48:49;;;;;;;2.60;2.40;;;15.90;50.10;;;;;;5228329;28;20209;-46
2023/06/13 00:51:20;;;;;;;8.33;2.50;;;15.80;50.10;;;;;;5234248;28;20444;-45
2023/06/13 00:53:51;;;;;;;3.20;2.27;;;15.80;50.20;;;;;;5231514;28;20850;-46
2023/06/13 00:56:24;;;;;;;2.37;2.27;;;15.80;50.30;;;;;;5213772;28;20795;-46
2023/06/13 00:58:59;;;;;;;2.87;2.13;;;15.80;50.50;;;;;;5207436;28;20664;-45
2023/06/13 01:01:30;;;;;;;5.10;2.30;;;15.70;50.50;;;;;;5208012;28;20490;-46
2023/06/13 01:04:02;;;;;;;4.33;2.07;;;15.70;50.60;;;;;;5210747;28;20979;-45
2023/06/13 01:06:40;;;;;;;2.63;2.43;;;15.70;50.60;;;;;;5209945;28;20230;-45
2023/06/13 01:09:12;;;;;;;2.97;2.60;;;15.70;50.70;;;;;;5225828;28;20433;-45
2023/06/13 01:11:51;;;;;;;2.23;2.13;;;15.60;50.70;;;;;;5206137;28;20869;-46
2023/06/13 01:14:34;;;;;;;3.43;1.87;;;15.60;50.80;;;;;;5223422;28;20526;-45
2023/06/13 01:17:26;;;;;;;2.70;2.30;;;15.50;51.10;;;;;;5208503;28;20457;-45
2023/06/13 01:19:59;;;;;;;2.60;2.40;;;15.50;51.20;;;;;;5223149;28;20433;-45
2023/06/13 01:22:52;;;;;;;2.23;2.20;;;15.50;51.30;;;;;;5213977;28;20430;-46
2023/06/13 01:25:44;;;;;;;5.27;2.43;;;15.50;51.30;;;;;;5226450;28;21101;-46
2023/06/13 01:28:15;;;;;;;2.47;2.37;;;15.50;51.30;;;;;;5224295;28;20429;-45
2023/06/13 01:30:47;;;;;;;4.80;2.07;;;15.40;51.30;;;;;;5226752;28;20814;-46
2023/06/13 01:33:21;;;;;;;2.07;2.07;;;15.40;51.50;;;;;;5213982;28;20434;-45
2023/06/13 01:35:51;;;;;;;6.40;2.00;;;15.30;51.50;;;;;;5210075;28;20515;-44
2023/06/13 01:38:22;;;;;;;1.90;1.90;;;15.30;51.70;;;;;;5225757;28;20425;-44
2023/06/13 01:40:53;;;;;;;3.27;2.23;;;15.30;51.70;;;;;;5222397;28;20245;-45
2023/06/13 01:43:24;;;;;;;4.63;2.40;;;15.30;51.80;;;;;;5207097;28;20449;-45
2023/06/13 01:46:25;;;;;;;2.40;2.30;;;15.20;52.10;;;;;;5208790;28;20210;-45
2023/06/13 01:49:05;;;;;;;4.53;2.13;;;15.10;52.20;;;;;;5223289;28;20182;-45
2023/06/13 01:51:55;;;;;;;2.83;2.63;;;15.10;52.30;;;;;;5220034;28;20848;-46
2023/06/13 01:54:27;;;;;;;2.17;1.97;;;15.00;52.50;;;;;;5223741;28;20495;-47
2023/06/13 01:57:03;;;;;;;2.67;2.50;;;14.90;52.80;;;;;;5209767;28;20464;-47
2023/06/13 01:59:37;;;;;;;2.63;2.40;;;14.90;53.20;;;;;;5228747;28;20532;-46
2023/06/13 02:02:08;;;;;;;2.70;2.50;;;14.80;53.40;;;;;;5226633;28;20445;-45
2023/06/13 02:04:43;;;;;;;2.30;2.10;;;14.80;53.60;;;;;;5232943;28;20488;-46
2023/06/13 02:07:14;;;;;;;2.60;2.40;;;14.80;53.90;;;;;;5228871;28;20437;-46
2023/06/13 02:09:44;;;;;;;4.30;2.33;;;14.80;54.00;;;;;;5219917;28;20444;-47
2023/06/13 02:12:15;;;;;;;2.10;1.90;;;14.70;54.20;;;;;;5221461;28;20183;-46
2023/06/13 02:14:46;;;;;;;5.63;3.03;;;14.70;54.10;;;;;;5223133;28;20604;-45
2023/06/13 02:17:17;;;;;;;2.77;2.37;;;14.60;54.30;;;;;;5218861;28;20194;-44
2023/06/13 02:19:47;;;;;;;3.53;2.33;;;14.50;54.40;;;;;;5202300;28;20521;-47
2023/06/13 02:22:18;;;;;;;2.07;1.97;;;14.50;54.70;;;;;;5208848;28;20190;-46
2023/06/13 02:24:49;;;;;;;6.20;2.70;;;14.50;54.80;;;;;;5223917;28;20210;-44
2023/06/13 02:27:20;;;;;;;2.07;2.00;;;14.40;54.80;;;;;;5204773;28;20694;-45
2023/06/13 02:29:51;;;;;;;5.80;2.00;;;14.40;55.10;;;;;;5206076;28;20181;-45
2023/06/13 02:32:23;;;;;;;15.60;2.43;;;14.30;55.50;;;;;;5207733;28;20180;-46
2023/06/13 02:34:53;;;;;;;2.60;2.50;;;14.30;55.50;;;;;;5205062;28;20444;-47
2023/06/13 02:37:24;;;;;;;2.70;2.60;;;14.30;55.70;;;;;;5221331;28;20465;-46
2023/06/13 02:39:55;;;;;;;2.40;2.30;;;14.30;55.90;;;;;;5225125;28;20258;-47
2023/06/13 02:42:27;;;;;;;2.67;2.57;;;14.20;56.00;;;;;;5222338;28;20182;-45
2023/06/13 02:44:58;;;;;;;3.60;2.53;;;14.20;56.30;;;;;;5222448;28;20195;-46
2023/06/13 02:47:28;;;;;;;5.40;2.30;;;14.20;56.30;;;;;;5184655;28;20825;-45
2023/06/13 02:49:59;;;;;;;2.57;2.37;;;14.20;56.50;;;;;;5217859;28;20190;-46
2023/06/13 02:52:29;;;;;;;2.37;2.27;;;14.20;56.60;;;;;;5219608;28;20312;-46
2023/06/13 02:55:00;;;;;;;2.20;1.90;;;14.30;56.80;;;;;;5214924;28;20184;-46
2023/06/13 02:57:31;;;;;;;2.50;2.27;;;14.20;56.90;;;;;;5205384;28;20198;-45
2023/06/13 03:00:03;;;;;;;2.73;2.63;;;14.30;56.90;;;;;;5208918;28;20183;-48
2023/06/13 03:02:36;;;;;;;5.27;2.57;;;14.30;57.10;;;;;;5209782;28;20616;-46
2023/06/13 03:05:09;;;;;;;2.67;2.57;;;14.30;57.20;;;;;;5203015;28;20499;-45
2023/06/13 03:07:46;;;;;;;2.40;2.20;;;14.30;57.20;;;;;;5205192;28;20474;-45
2023/06/13 03:10:18;;;;;;;4.57;2.30;;;14.30;57.10;;;;;;5221988;28;21019;-45
2023/06/13 03:12:49;;;;;;;3.57;2.10;;;14.40;57.30;;;;;;5205130;28;20859;-44
2023/06/13 03:15:19;;;;;;;5.07;2.87;;;14.40;57.10;;;;;;5221337;28;20433;-45
2023/06/13 03:17:51;;;;;;;2.97;2.77;;;14.40;57.30;;;;;;5223723;28;20677;-45
2023/06/13 03:20:23;;;;;;;3.17;2.63;;;14.50;57.30;;;;;;5228291;28;20179;-46
2023/06/13 03:22:54;;;;;;;3.00;2.80;;;14.50;57.40;;;;;;5213772;28;20448;-46
2023/06/13 03:25:25;;;;;;;2.27;2.10;;;14.40;57.40;;;;;;5228376;28;20457;-45
2023/06/13 03:27:56;;;;;;;2.93;2.53;;;14.40;57.50;;;;;;5225701;28;20175;-46
2023/06/13 03:30:27;;;;;;;2.40;2.20;;;14.40;57.50;;;;;;5227068;28;20520;-46
2023/06/13 03:32:58;;;;;;;2.73;2.60;;;14.50;57.40;;;;;;5219102;28;20195;-45
2023/06/13 03:35:29;;;;;;;5.63;2.33;;;14.50;57.50;;;;;;5223099;28;20180;-45
2023/06/13 03:37:59;;;;;;;2.37;2.30;;;14.50;57.70;;;;;;5227091;28;20970;-46
2023/06/13 03:40:30;;;;;;;2.90;2.70;;;14.50;57.80;;;;;;5227589;28;20306;-45
2023/06/13 03:43:00;;;;;;;2.70;2.57;;;14.50;57.60;;;;;;5227381;28;20185;-46
2023/06/13 03:45:31;;;;;;;4.63;2.80;;;14.60;57.70;;;;;;5206870;28;20295;-46
2023/06/13 03:48:02;;;;;;;3.20;2.47;;;14.60;58.30;;;;;;5210190;28;20604;-45
2023/06/13 03:50:33;;;;;;;2.30;2.20;;;14.70;57.70;;;;;;5227745;28;20183;-46
2023/06/13 03:53:04;;;;;;;3.90;2.90;;;14.70;57.80;;;;;;5209358;28;20426;-46
2023/06/13 03:55:34;;;;;;;2.50;2.40;;;14.70;57.80;;;;;;5226741;28;20567;-45
2023/06/13 03:58:05;;;;;;;7.73;2.70;;;14.80;57.70;;;;;;5209076;28;20202;-46
2023/06/13 04:00:39;;;;;;;7.20;2.30;;;14.80;57.90;;;;;;5226023;28;20218;-47
2023/06/13 04:03:10;;;;;;;5.40;2.83;;;14.80;57.80;;;;;;5210620;28;20175;-46
2023/06/13 04:05:40;;;;;;;3.07;2.80;;;14.80;57.60;;;;;;5207776;28;21005;-45
2023/06/13 04:08:11;;;;;;;2.07;1.93;;;14.80;57.80;;;;;;5223996;28;20425;-45
2023/06/13 04:10:42;;;;;;;2.77;2.57;;;14.90;57.70;;;;;;5225329;28;20179;-44
2023/06/13 04:13:13;;;;;;;2.80;2.70;;;15.00;57.50;;;;;;5206871;28;20183;-46
2023/06/13 04:15:43;;;;;;;3.60;3.13;;;15.20;57.30;;;;;;5217191;28;20199;-48
2023/06/13 04:18:17;;;;;;;6.53;2.90;;;15.30;57.20;;;;;;5224007;28;20194;-46
2023/06/13 04:20:47;;;;;;;3.50;2.80;;;15.40;57.40;;;;;;5208686;28;20186;-45
2023/06/13 04:23:19;;;;;;;2.43;2.23;;;15.60;57.20;;;;;;5209575;28;20847;-47
2023/06/13 04:25:49;;;;;;;3.40;2.90;;;15.80;56.80;;;;;;5206773;28;20233;-48
2023/06/13 04:28:22;;;;;;;4.73;3.20;;;15.90;56.30;;;;;;5206917;28;20449;-45
2023/06/13 04:30:53;;;;;;;2.80;2.70;;;15.80;56.90;;;;;;5205010;28;20267;-45
2023/06/13 04:33:24;;;;;;;3.07;2.87;;;15.70;57.70;;;;;;5226020;28;20528;-46
2023/06/13 04:36:03;;;;;;;2.83;2.63;;;15.80;57.40;;;;;;5241839;22;20493;-47
2023/06/13 04:38:37;;;;;;;5.70;2.23;;;15.80;57.10;;;;;;5208339;28;20446;-43
2023/06/13 04:41:13;;;;;;;15.03;3.60;;;15.90;57.10;;;;;;5209452;28;20788;-45
2023/06/13 04:43:45;;;;;;;3.90;3.60;;;16.00;56.90;;;;;;5210865;28;20427;-46
2023/06/13 04:46:18;;;;;;;3.87;3.50;;;16.30;56.80;;;;;;5207212;28;20552;-44
2023/06/13 04:48:48;;;;;;;5.87;3.43;;;16.30;56.30;;;;;;5206620;28;20432;-44
2023/06/13 04:51:21;;;;;;;2.90;2.80;;;16.30;56.20;;;;;;5204221;28;21563;-44
2023/06/13 04:53:53;;;;;;;3.87;3.50;;;16.50;56.10;;;;;;5209563;28;22767;-43
2023/06/13 04:56:26;;;;;;;4.90;4.17;;;17.10;55.40;;;;;;5208268;28;20442;-44
2023/06/13 04:58:56;;;;;;;5.70;3.40;;;18.00;53.40;;;;;;5208041;28;20525;-43
2023/06/13 05:01:27;;;;;;;4.10;3.70;;;18.60;51.00;;;;;;5203320;28;21080;-44
2023/06/13 05:03:59;;;;;;;3.83;3.63;;;18.30;51.00;;;;;;5206009;28;20509;-45
2023/06/13 05:06:30;;;;;;;5.50;3.60;;;18.10;51.80;;;;;;5189939;28;20451;-43
2023/06/13 05:09:00;;;;;;;9.30;3.70;;;18.60;50.70;;;;;;5205402;28;20460;-44
2023/06/13 05:11:31;;;;;;;3.43;3.13;;;18.70;50.30;;;;;;5188882;28;20663;-45
2023/06/13 05:14:01;;;;;;;4.43;3.80;;;19.40;49.90;;;;;;5190974;28;20643;-43
2023/06/13 05:16:34;;;;;;;3.40;3.03;;;21.00;47.10;;;;;;5201625;28;20203;-44
2023/06/13 05:19:05;;;;;;;3.60;3.30;;;21.50;46.10;;;;;;5188281;28;20187;-43
2023/06/13 05:21:36;;;;;;;3.83;3.53;;;22.80;43.70;;;;;;5201928;28;20427;-44
2023/06/13 05:24:09;;;;;;;4.30;3.93;;;23.00;42.40;;;;;;5203654;28;20469;-42
2023/06/13 05:26:39;;;;;;;3.70;3.40;;;23.10;41.90;;;;;;5203873;28;20482;-44
2023/06/13 05:29:10;;;;;;;5.10;3.30;;;23.70;41.40;;;;;;5187829;28;20949;-46
2023/06/13 05:31:41;;;;;;;7.03;3.60;;;23.70;40.40;;;;;;5198375;28;20218;-44
2023/06/13 05:34:11;;;;;;;7.57;3.10;;;23.60;41.10;;;;;;5184274;28;20210;-44
2023/06/13 05:36:42;;;;;;;7.40;3.37;;;23.90;39.80;;;;;;5203553;28;20219;-43
2023/06/13 05:39:13;;;;;;;4.93;3.10;;;23.90;40.00;;;;;;5204279;28;20243;-45
2023/06/13 05:41:43;;;;;;;5.87;3.60;;;23.90;39.70;;;;;;5171056;28;20180;-44
2023/06/13 05:44:14;;;;;;;5.30;3.67;;;23.80;39.50;;;;;;5206225;28;20766;-44
2023/06/13 05:46:45;;;;;;;10.90;3.63;;;23.20;41.10;;;;;;5204121;28;20199;-43
2023/06/13 05:49:15;;;;;;;4.23;3.70;;;23.00;40.90;;;;;;5203539;28;20267;-44
2023/06/13 05:51:46;;;;;;;5.37;3.50;;;22.20;42.40;;;;;;5205175;28;20179;-43
2023/06/13 05:54:16;;;;;;;13.40;4.20;;;21.60;43.30;;;;;;5201941;28;20222;-43
2023/06/13 05:56:47;;;;;;;7.33;3.97;;;22.20;44.00;;;;;;5186169;28;20290;-46
2023/06/13 05:59:17;;;;;;;9.43;4.43;;;22.90;42.50;;;;;;5204230;28;20192;-46
2023/06/13 06:01:49;;;;;;;5.00;4.13;;;23.30;41.30;;;;;;5185413;28;20449;-44
2023/06/13 06:04:19;;;;;;;8.37;3.23;;;23.00;41.20;;;;;;5202222;28;20199;-43
2023/06/13 06:06:50;;;;;;;3.80;3.23;;;23.10;42.00;;;;;;5201938;28;20541;-43
2023/06/13 06:09:21;;;;;;;4.80;3.90;;;23.80;40.50;;;;;;5203102;28;20179;-44
2023/06/13 06:11:52;;;;;;;4.00;3.70;;;24.70;39.50;;;;;;5206634;28;20263;-44
2023/06/13 06:14:23;;;;;;;3.70;3.30;;;24.70;38.70;;;;;;5204041;28;20196;-47
2023/06/13 06:16:55;;;;;;;8.47;3.90;;;23.90;39.50;;;;;;5188873;28;20496;-43
2023/06/13 06:19:25;;;;;;;4.50;3.13;;;23.10;40.50;;;;;;5188265;28;20182;-44
2023/06/13 06:21:56;;;;;;;6.00;3.10;;;22.70;40.80;;;;;;5194705;28;21005;-44
2023/06/13 06:24:27;;;;;;;5.60;3.03;;;22.40;41.70;;;;;;5175784;28;20203;-43
2023/06/13 06:26:59;;;;;;;8.33;3.87;;;23.10;42.00;;;;;;5185867;28;20764;-45
2023/06/13 06:29:31;;;;;;;3.47;3.17;;;24.70;39.50;;;;;;5180433;28;20957;-44
2023/06/13 06:32:01;;;;;;;5.10;3.53;;;26.00;36.40;;;;;;5202159;28;20496;-44
2023/06/13 06:34:33;;;;;;;8.80;2.77;;;26.50;35.10;;;;;;5190552;28;20444;-44
2023/06/13 06:37:04;;;;;;;2.63;2.43;;;27.00;34.50;;;;;;5206637;28;20318;-44
2023/06/13 06:39:35;;;;;;;3.10;2.80;;;27.80;33.20;;;;;;5173921;28;20611;-44
2023/06/13 06:42:06;;;;;;;6.70;3.60;;;27.90;32.50;;;;;;5200613;28;20519;-43
2023/06/13 06:44:36;;;;;;;7.20;3.30;;;27.10;33.30;;;;;;5188494;28;20558;-44
2023/06/13 06:47:07;;;;;;;5.70;3.10;;;26.00;34.80;;;;;;5205512;28;20265;-45
2023/06/13 06:49:37;;;;;;;3.77;3.53;;;25.20;36.40;;;;;;5197964;28;20694;-44
2023/06/13 06:52:08;;;;;;;4.90;3.10;;;24.80;36.60;;;;;;5199147;28;20266;-43
2023/06/13 06:54:39;;;;;;;4.70;3.60;;;24.00;36.90;;;;;;5169533;28;20671;-44
2023/06/13 06:57:10;;;;;;;4.30;3.20;;;24.10;37.70;;;;;;5198007;28;20551;-45
2023/06/13 06:59:41;;;;;;;6.83;3.80;;;25.10;37.00;;;;;;5182846;28;20210;-44
2023/06/13 07:02:12;;;;;;;5.43;2.97;;;26.70;34.10;;;;;;5204189;28;20614;-45
2023/06/13 07:04:43;;;;;;;5.40;3.47;;;28.40;31.80;;;;;;5194981;28;20553;-46
2023/06/13 07:07:14;;;;;;;5.27;3.47;;;29.50;30.00;;;;;;5184253;28;20571;-46
2023/06/13 07:09:44;;;;;;;3.30;3.00;;;30.10;29.70;;;;;;5204919;28;20442;-45
2023/06/13 07:12:15;;;;;;;3.27;2.83;;;30.10;29.60;;;;;;5205083;28;20249;-46
2023/06/13 07:14:46;;;;;;;3.90;3.50;;;29.40;30.00;;;;;;5190026;28;20183;-46
2023/06/13 07:17:16;;;;;;;10.53;3.50;;;27.50;31.50;;;;;;5184288;28;20253;-45
2023/06/13 07:19:47;;;;;;;5.53;2.77;;;26.10;33.30;;;;;;5183312;28;20195;-46
2023/06/13 07:22:17;;;;;;;3.73;3.03;;;24.30;35.70;;;;;;5203615;28;20184;-46
2023/06/13 07:24:48;;;;;;;5.13;3.43;;;23.40;37.60;;;;;;5184794;28;20626;-44
2023/06/13 07:27:19;;;;;;;6.87;3.23;;;23.50;38.20;;;;;;5205191;28;20738;-45
2023/06/13 07:29:49;;;;;;;3.00;2.70;;;23.40;38.30;;;;;;5205755;28;20180;-45
2023/06/13 07:32:20;;;;;;;3.33;3.13;;;23.20;38.80;;;;;;5189008;28;20534;-45
2023/06/13 07:34:51;;;;;;;5.00;3.00;;;23.80;38.90;;;;;;5185561;28;20618;-45
2023/06/13 07:37:22;;;;;;;6.63;2.93;;;24.90;36.60;;;;;;5186623;28;20215;-46
2023/06/13 07:39:52;;;;;;;3.10;2.90;;;25.30;35.80;;;;;;5203483;28;20207;-45
2023/06/13 07:42:23;;;;;;;3.20;2.93;;;25.00;36.00;;;;;;5204358;28;20183;-46
2023/06/13 07:44:53;;;;;;;3.50;3.20;;;25.50;36.40;;;;;;5186660;28;20822;-44
2023/06/13 07:47:24;;;;;;;3.97;3.40;;;26.10;34.80;;;;;;5185382;28;20206;-46
2023/06/13 07:49:55;;;;;;;11.33;3.40;;;26.10;33.90;;;;;;5204607;28;20531;-45
2023/06/13 07:52:25;;;;;;;4.30;2.40;;;25.20;35.30;;;;;;5201906;28;20194;-45
2023/06/13 07:54:56;;;;;;;4.37;3.20;;;25.60;36.60;;;;;;5186736;28;20179;-45
2023/06/13 07:57:26;;;;;;;4.20;3.47;;;26.10;35.50;;;;;;5185071;28;20255;-46
2023/06/13 07:59:57;;;;;;;3.60;3.30;;;26.00;35.20;;;;;;5203488;28;20873;-45
2023/06/13 08:02:29;;;;;;;3.60;3.10;;;26.40;34.70;;;;;;5186776;28;20531;-47
2023/06/13 08:05:02;;;;;;;8.80;3.03;;;26.30;34.80;;;;;;5182481;28;20302;-46
2023/06/13 08:07:33;;;;;;;17.10;3.60;;;25.10;35.50;;;;;;5185990;28;20454;-45
2023/06/13 08:10:04;;;;;;;3.03;2.80;;;25.10;36.60;;;;;;5202157;28;20426;-45
2023/06/13 08:12:35;;;;;;;4.77;3.20;;;25.80;34.90;;;;;;5200484;28;20188;-46
2023/06/13 08:15:06;;;;;;;3.07;2.87;;;26.30;33.80;;;;;;5184083;28;20805;-46
2023/06/13 08:17:37;;;;;;;7.23;2.80;;;25.80;33.70;;;;;;5183007;28;20611;-45
2023/06/13 08:20:09;;;;;;;6.73;3.43;;;25.60;34.80;;;;;;5203825;28;20442;-46
2023/06/13 08:22:40;;;;;;;2.70;2.50;;;26.10;34.30;;;;;;5199173;28;20489;-46
2023/06/13 08:25:11;;;;;;;4.00;3.40;;;27.00;33.20;;;;;;5206536;28;20477;-45
2023/06/13 08:27:44;;;;;;;3.40;3.10;;;26.90;32.80;;;;;;5185300;28;20811;-45
2023/06/13 08:30:15;;;;;;;7.90;3.57;;;27.80;32.10;;;;;;5197920;28;20525;-45
2023/06/13 08:32:46;;;;;;;3.60;3.30;;;29.10;30.80;;;;;;5198864;28;20446;-47
2023/06/13 08:35:16;;;;;;;4.17;3.27;;;29.00;30.00;;;;;;5201409;28;20183;-44
2023/06/13 08:37:47;;;;;;;5.17;3.20;;;29.10;30.20;;;;;;5181336;28;20474;-45
2023/06/13 08:40:19;;;;;;;5.20;2.87;;;28.60;30.00;;;;;;5173063;28;20195;-46
2023/06/13 08:42:50;;;;;;;8.40;2.87;;;26.90;31.50;;;;;;5203423;28;20191;-45
2023/06/13 08:45:21;;;;;;;6.70;3.33;;;25.70;33.70;;;;;;5181390;28;20524;-45
2023/06/13 08:47:53;;;;;;;4.77;2.53;;;25.00;34.80;;;;;;5199388;28;20207;-45
2023/06/13 08:50:26;;;;;;;2.70;2.50;;;24.50;36.10;;;;;;5184422;28;20430;-46
2023/06/13 08:52:59;;;;;;;5.73;3.80;;;24.00;36.80;;;;;;5202198;28;20525;-45
2023/06/13 08:55:36;;;;;;;4.67;3.27;;;23.20;37.20;;;;;;5185855;28;20451;-44
2023/06/13 08:58:10;;;;;;;4.33;2.93;;;22.90;37.90;;;;;;5167098;28;20442;-45
2023/06/13 09:00:41;;;;;;;3.07;2.87;;;22.70;38.20;;;;;;5185914;28;20438;-43
2023/06/13 09:03:12;;;;;;;3.80;3.40;;;22.70;38.70;;;;;;5203125;28;20771;-46
2023/06/13 09:05:43;;;;;;;6.27;3.30;;;22.70;39.30;;;;;;5185541;28;20461;-45
2023/06/13 09:08:15;;;;;;;4.90;3.50;;;22.90;39.10;;;;;;5204487;28;20434;-45
2023/06/13 09:10:45;;;;;;;7.10;2.40;;;23.10;38.50;;;;;;5178343;28;20498;-45
2023/06/13 09:13:17;;;;;;;10.43;3.10;;;23.20;38.40;;;;;;5198385;28;20880;-45
2023/06/13 09:15:48;;;;;;;2.70;2.60;;;23.10;38.10;;;;;;5200057;28;20258;-47
2023/06/13 09:18:19;;;;;;;3.30;3.07;;;22.90;38.20;;;;;;5179246;28;20842;-46
2023/06/13 09:20:50;;;;;;;4.30;3.20;;;22.60;38.60;;;;;;5201968;28;20769;-45
2023/06/13 09:23:21;;;;;;;2.70;2.50;;;22.60;39.60;;;;;;5199984;28;20450;-45
2023/06/13 09:25:52;;;;;;;4.43;2.87;;;22.60;37.40;;;;;;5183272;28;20658;-46
2023/06/13 09:28:32;;;;;;;2.90;2.60;;;22.70;36.90;;;;;;5200743;28;20262;-46
2023/06/13 09:31:03;;;;;;;7.57;3.03;;;22.70;36.00;;;;;;5203994;28;20517;-44
2023/06/13 09:33:35;;;;;;;4.67;2.70;;;22.60;35.60;;;;;;5201425;28;20438;-46
2023/06/13 09:36:06;;;;;;;6.00;2.93;;;22.50;35.10;;;;;;5202456;28;20211;-46
2023/06/13 09:38:42;;;;;;;9.00;2.80;;;22.40;35.00;;;;;;5171483;28;20621;-45
2023/06/13 09:41:13;;;;;;;2.60;2.40;;;22.40;36.00;;;;;;5201339;28;21012;-45
2023/06/13 09:43:44;;;;;;;3.40;3.10;;;22.30;36.40;;;;;;5200904;28;20512;-44
2023/06/13 09:46:15;;;;;;;5.00;3.20;;;22.40;36.60;;;;;;5184402;28;20469;-46
2023/06/13 09:48:46;;;;;;;4.83;2.33;;;22.70;36.20;;;;;;5198546;28;20636;-46
2023/06/13 09:51:16;;;;;;;3.50;2.43;;;23.00;35.80;;;;;;5194323;28;20599;-45
2023/06/13 09:53:47;;;;;;;3.70;2.80;;;23.40;35.70;;;;;;5202417;28;20283;-45
2023/06/13 09:56:18;;;;;;;5.50;2.97;;;23.70;35.20;;;;;;5201857;28;20203;-44
2023/06/13 09:58:50;;;;;;;2.33;2.10;;;23.80;35.00;;;;;;5194261;28;20188;-46
2023/06/13 10:01:21;;;;;;;3.03;2.83;;;23.90;34.80;;;;;;5193077;28;20191;-45
2023/06/13 10:03:52;;;;;;;3.53;2.77;;;23.90;35.10;;;;;;5198124;28;20492;-45
2023/06/13 10:06:23;;;;;;;3.73;2.10;;;23.90;35.50;;;;;;5196421;28;20203;-45
2023/06/13 10:08:54;;;;;;;4.63;2.73;;;23.90;34.80;;;;;;5194675;28;20183;-46
2023/06/13 10:11:33;;;;;;;5.87;2.23;;;23.60;34.10;;;;;;5184309;28;20441;-46
2023/06/13 10:14:12;;;;;;;4.17;2.83;;;23.50;34.50;;;;;;5183024;28;20436;-46
2023/06/13 10:16:51;;;;;;;4.57;2.10;;;23.30;34.70;;;;;;5197567;28;20481;-45
2023/06/13 10:19:24;;;;;;;5.67;3.00;;;23.10;34.90;;;;;;5196830;28;20816;-45
2023/06/13 10:21:56;;;;;;;4.70;3.20;;;23.20;35.30;;;;;;5195959;28;20792;-46
2023/06/13 10:24:27;;;;;;;1.90;1.80;;;23.20;35.40;;;;;;5192841;28;20481;-45
2023/06/13 10:26:58;;;;;;;5.30;2.07;;;23.50;35.20;;;;;;5194088;28;20454;-46
2023/06/13 10:29:53;;;;;;;4.80;2.30;;;23.70;33.70;;;;;;5169181;28;20192;-46
2023/06/13 10:32:42;;;;;;;2.90;2.57;;;23.80;32.50;;;;;;5191245;28;20517;-44
2023/06/13 10:35:30;;;;;;;3.33;1.80;;;23.60;33.30;;;;;;5168603;28;20785;-45
2023/06/13 10:38:14;;;;;;;2.60;2.40;;;23.40;32.30;;;;;;5191053;23;20516;-46
2023/06/13 10:40:54;;;;;;;2.53;2.17;;;23.40;34.40;;;;;;5182831;28;20461;-47
2023/06/13 10:43:40;;;;;;;2.90;2.70;;;23.20;35.00;;;;;;5182374;28;20942;-46
2023/06/13 10:46:11;;;;;;;3.70;2.27;;;23.10;35.20;;;;;;5170905;28;20557;-46
2023/06/13 10:48:52;;;;;;;2.40;2.30;;;22.90;35.90;;;;;;5175892;28;20442;-46
2023/06/13 10:51:27;;;;;;;5.30;3.70;;;22.70;36.40;;;;;;5192512;28;20176;-47
2023/06/13 10:54:11;;;;;;;3.47;3.10;;;22.70;37.40;;;;;;5191930;28;20426;-46
2023/06/13 10:56:43;;;;;;;8.70;3.23;;;22.70;37.40;;;;;;5192562;28;20450;-45
2023/06/13 10:59:16;;;;;;;8.47;2.80;;;22.70;37.00;;;;;;5190663;28;21013;-48
2023/06/13 11:01:50;;;;;;;3.07;2.17;;;22.60;37.00;;;;;;5184492;28;20874;-47
2023/06/13 11:04:21;;;;;;;12.23;2.67;;;22.60;36.90;;;;;;5188604;28;20459;-46
2023/06/13 11:06:52;;;;;;;2.17;2.07;;;22.60;35.80;;;;;;5187511;28;20447;-46
2023/06/13 11:09:25;;;;;;;5.83;2.10;;;22.60;35.90;;;;;;5188484;28;20619;-44
2023/06/13 11:12:02;;;;;;;9.23;2.13;;;22.60;35.60;;;;;;5186956;28;20661;-47
2023/06/13 11:14:38;;;;;;;4.13;2.10;;;22.70;36.20;;;;;;5182310;28;20521;-46
2023/06/13 11:17:08;;;;;;;2.27;2.13;;;22.60;36.40;;;;;;5185369;28;20442;-46
2023/06/13 11:19:39;;;;;;;4.63;2.10;;;22.40;37.50;;;;;;5166003;28;20435;-46
2023/06/13 11:22:13;;;;;;;2.60;2.33;;;22.40;37.90;;;;;;5182952;28;20176;-46
2023/06/13 11:24:44;;;;;;;3.43;2.33;;;22.60;38.10;;;;;;5168093;28;20463;-47
2023/06/13 11:27:16;;;;;;;2.20;2.10;;;22.60;38.10;;;;;;5181848;28;20454;-48
2023/06/13 11:29:48;;;;;;;12.87;2.80;;;22.60;37.70;;;;;;5188659;28;20842;-49
2023/06/13 11:32:21;;;;;;;3.90;2.60;;;22.50;37.30;;;;;;5172325;28;20431;-46
2023/06/13 11:34:57;;;;;;;5.90;2.00;;;22.30;37.50;;;;;;5188250;28;21026;-45
2023/06/13 11:37:36;;;;;;;4.40;2.27;;;22.40;36.70;;;;;;5190679;28;21005;-45
2023/06/13 11:40:13;;;;;;;2.13;1.83;;;22.20;35.30;;;;;;5188865;28;20955;-47
2023/06/13 11:42:44;;;;;;;2.20;2.00;;;22.10;33.70;;;;;;5190237;28;20958;-46
2023/06/13 11:45:15;;;;;;;4.10;1.60;;;22.20;33.20;;;;;;5173882;28;20471;-46
2023/06/13 11:47:46;;;;;;;3.90;1.70;;;22.20;33.90;;;;;;5190048;28;20269;-46
2023/06/13 11:50:25;;;;;;;3.83;1.83;;;22.30;34.50;;;;;;5181254;28;20426;-46
2023/06/13 11:53:25;;;;;;;3.10;1.77;;;22.50;35.10;;;;;;5186776;28;20180;-46
2023/06/13 11:56:04;;;;;;;2.67;2.10;;;22.40;34.40;;;;;;5182110;28;21301;-47
2023/06/13 11:58:38;;;;;;;2.13;2.03;;;22.50;34.40;;;;;;5191020;28;20502;-46
2023/06/13 12:01:16;;;;;;;5.40;2.00;;;22.60;35.00;;;;;;5189949;28;20443;-46
2023/06/13 12:03:48;;;;;;;8.93;2.17;;;22.70;35.00;;;;;;5189237;28;20435;-45
2023/06/13 12:06:19;;;;;;;6.77;2.00;;;22.70;34.80;;;;;;5192350;28;20485;-50
2023/06/13 12:08:51;;;;;;;2.20;2.10;;;22.70;35.40;;;;;;5183902;28;20781;-47
2023/06/13 12:11:23;;;;;;;2.73;1.93;;;22.80;34.80;;;;;;5189335;28;20443;-49
2023/06/13 12:13:58;;;;;;;8.00;4.47;;;22.80;33.80;;;;;;5184783;28;20874;-48
2023/06/13 12:16:34;;;;;;;2.23;2.13;;;22.90;34.40;;;;;;5182924;28;20453;-47
2023/06/13 12:19:06;;;;;;;5.20;2.87;;;23.20;34.50;;;;;;5183935;28;20509;-46
2023/06/13 12:21:38;;;;;;;1.70;1.60;;;23.50;34.00;;;;;;5184609;28;20967;-48
2023/06/13 12:24:10;;;;;;;2.13;2.03;;;23.70;34.00;;;;;;5185524;28;20517;-48
2023/06/13 12:26:41;;;;;;;3.43;2.47;;;23.50;34.90;;;;;;5182745;28;20999;-46
2023/06/13 12:29:12;;;;;;;2.20;1.87;;;23.10;35.40;;;;;;5186250;28;20526;-48
2023/06/13 12:31:44;;;;;;;3.13;2.40;;;22.80;36.00;;;;;;5183732;28;20431;-47
2023/06/13 12:34:30;;;;;;;2.30;2.20;;;22.80;36.30;;;;;;5167079;28;20472;-46
2023/06/13 12:37:06;;;;;;;5.03;2.30;;;22.80;36.60;;;;;;5177537;28;20474;-48
2023/06/13 12:39:37;;;;;;;3.83;2.03;;;22.70;36.20;;;;;;5181839;28;20459;-48
2023/06/13 12:42:08;;;;;;;10.00;2.57;;;22.70;36.50;;;;;;5178402;28;20446;-48
2023/06/13 12:44:39;;;;;;;2.13;2.03;;;22.70;36.90;;;;;;5184078;28;20479;-48
2023/06/13 12:47:16;;;;;;;3.67;2.77;;;22.70;37.10;;;;;;5186802;28;20449;-48
2023/06/13 12:49:47;;;;;;;3.60;2.77;;;22.80;36.00;;;;;;5191876;28;20448;-47
2023/06/13 12:52:24;;;;;;;2.53;2.33;;;22.70;35.70;;;;;;5185448;28;20431;-48
2023/06/13 12:55:00;;;;;;;1.73;1.70;;;22.90;35.10;;;;;;5185730;28;20184;-47
2023/06/13 12:57:31;;;;;;;2.87;1.97;;;23.20;35.40;;;;;;5184152;28;20561;-47
2023/06/13 13:00:06;;;;;;;6.63;2.03;;;23.30;35.30;;;;;;5192374;28;20509;-47
2023/06/13 13:02:37;;;;;;;9.80;2.40;;;23.40;35.00;;;;;;5182497;28;20180;-46
2023/06/13 13:05:11;;;;;;;1.90;1.90;;;23.30;34.80;;;;;;5185716;28;21073;-47
2023/06/13 13:07:42;;;;;;;2.37;1.70;;;23.10;35.30;;;;;;5185517;28;20551;-47
2023/06/13 13:10:13;;;;;;;2.60;2.37;;;22.80;35.40;;;;;;5182905;28;20441;-47
2023/06/13 13:12:49;;;;;;;3.03;1.80;;;22.60;35.50;;;;;;5184900;28;20272;-49